createdAt,value
2023-02-27T00:02:26.178Z,102106.91
2023-02-27T00:04:54.711Z,102099.75
2023-02-27T00:07:26.454Z,102110.50
2023-02-27T00:09:53.352Z,102105.84
2023-02-27T00:12:20.302Z,102114.09
2023-02-27T00:14:46.723Z,102112.19
2023-02-27T00:17:13.019Z,102109.44
2023-02-27T00:19:39.403Z,102100.59
2023-02-27T00:22:06.023Z,102109.66
2023-02-27T00:24:32.424Z,102101.69
2023-02-27T00:26:59.110Z,102099.44
2023-02-27T00:29:25.573Z,102101.91
2023-02-27T00:31:52.039Z,102099.69
2023-02-27T00:34:18.610Z,102101.00
2023-02-27T00:36:44.968Z,102104.59
2023-02-27T00:39:11.442Z,102100.94
2023-02-27T00:41:37.773Z,102105.31
2023-02-27T00:44:04.492Z,102105.00
2023-02-27T00:46:30.953Z,102105.22
2023-02-27T00:48:57.295Z,102106.59
2023-02-27T00:51:23.855Z,102107.94
2023-02-27T00:53:50.344Z,102100.78
2023-02-27T00:56:16.695Z,102103.81
2023-02-27T00:58:43.054Z,102105.72
2023-02-27T01:01:09.507Z,102105.72
2023-02-27T01:03:36.025Z,102102.16
2023-02-27T01:06:02.625Z,102094.44
2023-02-27T01:08:30.246Z,102098.03
2023-02-27T01:10:57.225Z,102095.03
2023-02-27T01:13:24.286Z,102097.78
2023-02-27T01:15:51.491Z,102095.88
2023-02-27T01:18:18.380Z,102094.19
2023-02-27T01:20:44.826Z,102093.34
2023-02-27T01:23:11.289Z,102096.09
2023-02-27T01:25:37.787Z,102095.28
2023-02-27T01:28:04.508Z,102093.34
2023-02-27T01:30:31.147Z,102091.44
2023-02-27T01:32:57.789Z,102095.88
2023-02-27T01:35:24.245Z,102099.69
2023-02-27T01:37:50.948Z,102099.13
2023-02-27T01:40:17.688Z,102109.56
2023-02-27T01:42:44.157Z,102103.47
2023-02-27T01:45:32.469Z,102100.94
2023-02-27T01:48:06.702Z,102107.53
2023-02-27T01:50:35.265Z,102104.22
2023-02-27T01:53:03.419Z,102103.66
2023-02-27T01:55:33.422Z,102099.75
2023-02-27T01:58:00.462Z,102098.09
2023-02-27T02:00:27.426Z,102091.19
2023-02-27T02:03:07.039Z,102093.59
2023-02-27T02:05:34.168Z,102093.88
2023-02-27T02:08:01.597Z,102102.38
2023-02-27T02:10:29.590Z,102095.47
2023-02-27T02:12:56.394Z,102102.34
2023-02-27T02:15:29.435Z,102094.59
2023-02-27T02:18:19.363Z,102098.44
2023-02-27T02:21:00.704Z,102094.25
2023-02-27T02:24:07.412Z,102102.78
2023-02-27T02:26:43.610Z,102095.63
2023-02-27T02:29:43.837Z,102108.22
2023-02-27T02:32:28.662Z,102099.41
2023-02-27T02:35:12.534Z,102108.16
2023-02-27T02:37:44.845Z,102110.06
2023-02-27T02:40:30.114Z,102105.34
2023-02-27T02:43:13.710Z,102105.34
2023-02-27T02:46:02.969Z,102111.34
2023-02-27T02:48:41.971Z,102114.09
2023-02-27T02:51:22.592Z,102121.75
2023-02-27T02:53:59.770Z,102120.34
2023-02-27T02:56:30.016Z,102123.91
2023-02-27T02:59:23.282Z,102120.88
2023-02-27T03:02:07.999Z,102116.44
2023-02-27T03:04:43.280Z,102122.47
2023-02-27T03:07:16.925Z,102116.63
2023-02-27T03:09:49.124Z,102116.31
2023-02-27T03:12:23.778Z,102120.91
2023-02-27T03:15:08.783Z,102122.25
2023-02-27T03:17:52.737Z,102121.09
2023-02-27T03:20:25.277Z,102124.06
2023-02-27T03:22:57.318Z,102116.38
2023-02-27T03:25:27.075Z,102124.84
2023-02-27T03:27:58.585Z,102118.22
2023-02-27T03:30:35.126Z,102125.84
2023-02-27T03:33:17.228Z,102119.78
2023-02-27T03:35:52.179Z,102112.03
2023-02-27T03:38:28.401Z,102119.72
2023-02-27T03:41:12.801Z,102112.78
2023-02-27T03:44:10.395Z,102110.31
2023-02-27T03:46:37.230Z,102117.19
2023-02-27T03:49:04.431Z,102109.22
2023-02-27T03:51:31.907Z,102101.50
2023-02-27T03:54:13.457Z,102124.78
2023-02-27T03:56:59.185Z,102108.59
2023-02-27T03:59:26.342Z,102107.50
2023-02-27T04:01:55.049Z,102111.06
2023-02-27T04:04:22.516Z,102117.66
2023-02-27T04:07:14.250Z,102121.47
2023-02-27T04:10:08.865Z,102120.88
2023-02-27T04:12:38.151Z,102130.78
2023-02-27T04:15:34.355Z,102129.38
2023-02-27T04:18:22.116Z,102125.53
2023-02-27T04:20:57.063Z,102130.47
2023-02-27T04:23:34.448Z,102127.13
2023-02-27T04:26:31.594Z,102139.19
2023-02-27T04:29:09.733Z,102141.09
2023-02-27T04:31:47.066Z,102140.28
2023-02-27T04:34:38.873Z,102145.44
2023-02-27T04:37:13.073Z,102139.38
2023-02-27T04:39:51.917Z,102147.00
2023-02-27T04:42:24.154Z,102152.50
2023-02-27T04:44:54.526Z,102150.84
2023-02-27T04:47:24.463Z,102160.16
2023-02-27T04:50:04.336Z,102157.91
2023-02-27T04:52:38.177Z,102165.31
2023-02-27T04:55:20.172Z,102163.03
2023-02-27T04:57:53.664Z,102164.97
2023-02-27T05:00:23.251Z,102167.97
2023-02-27T05:02:55.008Z,102169.03
2023-02-27T05:05:26.955Z,102164.88
2023-02-27T05:08:01.303Z,102164.88
2023-02-27T05:10:40.434Z,102171.69
2023-02-27T05:13:13.453Z,102169.19
2023-02-27T05:16:03.813Z,102171.34
2023-02-27T05:18:30.855Z,102169.69
2023-02-27T05:21:22.181Z,102174.59
2023-02-27T05:24:18.709Z,102170.19
2023-02-27T05:27:09.811Z,102174.00
2023-02-27T05:29:45.703Z,102180.31
2023-02-27T05:32:24.433Z,102177.59
2023-02-27T05:35:30.269Z,102178.91
2023-02-27T05:38:25.506Z,102183.56
2023-02-27T05:41:09.260Z,102185.16
2023-02-27T05:43:41.304Z,102179.66
2023-02-27T05:46:13.593Z,102185.63
2023-02-27T05:48:46.461Z,102190.50
2023-02-27T05:51:16.873Z,102194.34
2023-02-27T05:53:50.982Z,102195.41
2023-02-27T05:56:21.505Z,102194.59
2023-02-27T05:59:06.977Z,102200.34
2023-02-27T06:01:33.728Z,102209.13
2023-02-27T06:04:00.176Z,102203.66
2023-02-27T06:06:27.098Z,102211.63
2023-02-27T06:08:53.627Z,102211.63
2023-02-27T06:11:19.952Z,102216.06
2023-02-27T06:13:46.324Z,102215.19
2023-02-27T06:16:14.825Z,102224.50
2023-02-27T06:18:41.283Z,102231.91
2023-02-27T06:21:08.174Z,102233.81
2023-02-27T06:23:34.562Z,102233.00
2023-02-27T06:26:00.995Z,102239.56
2023-02-27T06:28:27.760Z,102237.66
2023-02-27T06:30:57.067Z,102240.38
2023-02-27T06:33:26.135Z,102238.22
2023-02-27T06:35:53.113Z,102245.16
2023-02-27T06:38:19.673Z,102241.88
2023-02-27T06:40:46.097Z,102250.72
2023-02-27T06:43:12.625Z,102235.66
2023-02-27T06:45:39.061Z,102239.84
2023-02-27T06:48:05.771Z,102242.94
2023-02-27T06:50:32.824Z,102251.50
2023-02-27T06:52:59.404Z,102252.69
2023-02-27T06:55:25.836Z,102255.75
2023-02-27T06:57:52.319Z,102255.03
2023-02-27T07:00:19.144Z,102254.78
2023-02-27T07:02:45.584Z,102264.19
2023-02-27T07:05:12.113Z,102265.09
2023-02-27T07:07:39.561Z,102265.44
2023-02-27T07:10:11.821Z,102270.47
2023-02-27T07:12:39.575Z,102267.19
2023-02-27T07:15:07.123Z,102273.03
2023-02-27T07:17:33.703Z,102277.78
2023-02-27T07:20:00.114Z,102279.78
2023-02-27T07:22:27.042Z,102288.38
2023-02-27T07:24:53.596Z,102291.22
2023-02-27T07:27:20.161Z,102285.19
2023-02-27T07:29:46.530Z,102287.81
2023-02-27T07:32:13.094Z,102286.22
2023-02-27T07:34:39.558Z,102285.22
2023-02-27T07:37:05.910Z,102284.22
2023-02-27T07:39:32.527Z,102291.44
2023-02-27T07:41:58.968Z,102294.06
2023-02-27T07:44:25.382Z,102304.28
2023-02-27T07:46:55.009Z,102300.78
2023-02-27T07:49:21.366Z,102305.28
2023-02-27T07:51:48.122Z,102294.34
2023-02-27T07:54:14.591Z,102296.09
2023-02-27T07:56:40.975Z,102289.56
2023-02-27T07:59:08.484Z,102288.59
2023-02-27T08:01:34.851Z,102296.63
2023-02-27T08:04:01.728Z,102298.13
2023-02-27T08:06:28.693Z,102299.28
2023-02-27T08:08:55.275Z,102302.94
2023-02-27T08:11:21.738Z,102305.75
2023-02-27T08:14:00.034Z,102308.56
2023-02-27T08:16:28.072Z,102309.72
2023-02-27T08:18:54.629Z,102306.78
2023-02-27T08:21:21.056Z,102301.59
2023-02-27T08:23:47.526Z,102315.97
2023-02-27T08:26:14.042Z,102309.72
2023-02-27T08:28:40.795Z,102314.44
2023-02-27T08:31:07.161Z,102311.78
2023-02-27T08:33:34.202Z,102314.34
2023-02-27T08:36:02.075Z,102314.41
2023-02-27T08:38:28.447Z,102318.28
2023-02-27T08:40:54.793Z,102313.69
2023-02-27T08:43:22.280Z,102323.66
2023-02-27T08:45:50.176Z,102322.06
2023-02-27T08:48:18.548Z,102309.72
2023-02-27T08:50:45.785Z,102318.88
2023-02-27T08:53:13.059Z,102313.72
2023-02-27T08:55:39.426Z,102321.22
2023-02-27T08:58:06.320Z,102324.59
2023-02-27T09:00:32.916Z,102327.97
2023-02-27T09:03:01.536Z,102325.00
2023-02-27T09:05:28.877Z,102320.09
2023-02-27T09:07:55.515Z,102311.84
2023-02-27T09:10:22.592Z,102318.81
2023-02-27T09:12:49.234Z,102314.19
2023-02-27T09:15:16.137Z,102313.66
2023-02-27T09:17:42.611Z,102317.03
2023-02-27T09:20:10.684Z,102311.56
2023-02-27T09:22:37.745Z,102303.63
2023-02-27T09:25:05.320Z,102313.28
2023-02-27T09:27:31.684Z,102306.72
2023-02-27T09:29:59.428Z,102310.66
2023-02-27T09:32:26.320Z,102305.69
2023-02-27T09:34:56.468Z,102303.25
2023-02-27T09:37:36.480Z,102299.41
2023-02-27T09:40:05.823Z,102306.63
2023-02-27T09:42:46.881Z,102308.34
2023-02-27T09:45:23.519Z,102308.38
2023-02-27T09:47:55.680Z,102305.06
2023-02-27T09:50:34.094Z,102292.94
2023-02-27T09:53:00.740Z,102298.19
2023-02-27T09:55:34.897Z,102293.50
2023-02-27T09:58:12.953Z,102299.38
2023-02-27T10:00:57.571Z,102307.94
2023-02-27T10:03:43.385Z,102306.31
2023-02-27T10:06:27.217Z,102311.00
2023-02-27T10:09:09.106Z,102305.19
2023-02-27T10:11:51.729Z,102311.25
2023-02-27T10:14:53.819Z,102318.72
2023-02-27T10:17:26.367Z,102319.84
2023-02-27T10:19:54.624Z,102315.13
2023-02-27T10:22:27.053Z,102321.78
2023-02-27T10:25:00.791Z,102304.63
2023-02-27T10:27:27.350Z,102315.16
2023-02-27T10:30:05.780Z,102315.41
2023-02-27T10:32:35.720Z,102314.00
2023-02-27T10:35:15.001Z,102305.13
2023-02-27T10:37:48.146Z,102305.63
2023-02-27T10:40:16.471Z,102309.72
2023-02-27T10:42:43.379Z,102301.09
2023-02-27T10:45:16.048Z,102316.56
2023-02-27T10:47:43.144Z,102317.66
2023-02-27T10:50:31.079Z,102308.47
2023-02-27T10:53:00.427Z,102314.78
2023-02-27T10:55:30.059Z,102307.56
2023-02-27T10:57:58.370Z,102293.94
2023-02-27T11:00:49.705Z,102302.53
2023-02-27T11:03:22.891Z,102300.34
2023-02-27T11:06:17.529Z,102286.19
2023-02-27T11:08:43.987Z,102279.50
2023-02-27T11:11:12.092Z,102277.88
2023-02-27T11:13:41.642Z,102275.09
2023-02-27T11:16:21.810Z,102265.41
2023-02-27T11:18:51.127Z,102265.41
2023-02-27T11:21:20.339Z,102261.53
2023-02-27T11:23:57.355Z,102263.50
2023-02-27T11:26:54.314Z,102264.91
2023-02-27T11:29:21.771Z,102263.81
2023-02-27T11:31:55.094Z,102263.03
2023-02-27T11:34:28.419Z,102267.75
2023-02-27T11:37:02.162Z,102258.88
2023-02-27T11:39:47.647Z,102261.41
2023-02-27T11:42:48.364Z,102273.31
2023-02-27T11:46:19.453Z,102269.94
2023-02-27T11:48:18.062Z,102277.66
2023-02-27T11:50:56.826Z,102261.84
2023-02-27T11:53:34.629Z,102255.13
2023-02-27T11:56:04.070Z,102271.41
2023-02-27T11:58:44.472Z,102265.00
2023-02-27T12:01:30.969Z,102248.03
2023-02-27T12:04:13.724Z,102258.81
2023-02-27T12:06:45.432Z,102257.34
2023-02-27T12:10:01.374Z,102265.09
2023-02-27T12:12:51.119Z,102250.63
2023-02-27T12:15:32.833Z,102260.63
2023-02-27T12:18:20.617Z,102266.22
2023-02-27T12:20:47.059Z,102261.78
2023-02-27T12:23:29.496Z,102254.91
2023-02-27T12:26:13.653Z,102254.66
2023-02-27T12:28:53.923Z,102252.75
2023-02-27T12:31:32.584Z,102255.28
2023-02-27T12:34:07.114Z,102253.94
2023-02-27T12:36:33.539Z,102252.81
2023-02-27T12:39:00.136Z,102259.47
2023-02-27T12:42:05.952Z,102256.72
2023-02-27T12:44:50.751Z,102257.00
2023-02-27T12:47:52.763Z,102251.16
2023-02-27T12:50:22.947Z,102251.09
2023-02-27T12:53:13.386Z,102249.16
2023-02-27T12:55:48.946Z,102246.66
2023-02-27T12:58:27.484Z,102247.13
2023-02-27T13:01:02.225Z,102244.84
2023-02-27T13:03:42.206Z,102245.63
2023-02-27T13:06:21.012Z,102237.25
2023-02-27T13:09:15.260Z,102235.50
2023-02-27T13:11:56.991Z,102232.06
2023-02-27T13:14:46.960Z,102240.56
2023-02-27T13:17:36.389Z,102239.41
2023-02-27T13:20:21.282Z,102233.78
2023-02-27T13:23:15.939Z,102229.88
2023-02-27T13:25:47.790Z,102225.47
2023-02-27T13:28:18.517Z,102224.91
2023-02-27T13:31:04.239Z,102227.47
2023-02-27T13:33:42.537Z,102233.91
2023-02-27T13:36:25.511Z,102222.25
2023-02-27T13:38:54.789Z,102230.63
2023-02-27T13:41:23.494Z,102234.84
2023-02-27T13:44:19.998Z,102214.56
2023-02-27T13:46:47.114Z,102228.41
2023-02-27T13:49:29.645Z,102218.13
2023-02-27T13:51:59.904Z,102211.91
2023-02-27T13:54:33.615Z,102205.47
2023-02-27T13:57:19.039Z,102213.16
2023-02-27T13:59:57.322Z,102206.97
2023-02-27T14:02:56.763Z,102211.03
2023-02-27T14:05:43.530Z,102218.41
2023-02-27T14:08:19.598Z,102216.38
2023-02-27T14:11:10.146Z,102207.22
2023-02-27T14:13:49.399Z,102205.88
2023-02-27T14:16:37.776Z,102204.56
2023-02-27T14:19:24.168Z,102208.56
2023-02-27T14:22:01.489Z,102206.16
2023-02-27T14:24:44.854Z,102199.53
2023-02-27T14:27:22.993Z,102213.47
2023-02-27T14:29:52.709Z,102199.88
2023-02-27T14:32:25.628Z,102199.66
2023-02-27T14:34:55.824Z,102202.13
2023-02-27T14:37:25.759Z,102201.25
2023-02-27T14:39:54.486Z,102204.78
2023-02-27T14:42:30.351Z,102189.69
2023-02-27T14:44:57.008Z,102210.97
2023-02-27T14:47:32.435Z,102198.94
2023-02-27T14:49:59.354Z,102202.50
2023-02-27T14:52:31.461Z,102197.47
2023-02-27T14:55:19.157Z,102206.09
2023-02-27T14:58:13.043Z,102206.41
2023-02-27T15:00:50.525Z,102201.47
2023-02-27T15:03:22.758Z,102203.75
2023-02-27T15:05:54.824Z,102209.06
2023-02-27T15:08:28.819Z,102201.63
2023-02-27T15:10:59.942Z,102203.06
2023-02-27T15:13:35.791Z,102198.09
2023-02-27T15:16:24.451Z,102197.28
2023-02-27T15:18:57.721Z,102200.28
2023-02-27T15:21:26.868Z,102200.03
2023-02-27T15:23:55.767Z,102200.03
2023-02-27T15:26:25.492Z,102203.94
2023-02-27T15:28:52.746Z,102200.94
2023-02-27T15:31:22.395Z,102212.66
2023-02-27T15:33:50.139Z,102209.00
2023-02-27T15:36:26.351Z,102208.50
2023-02-27T15:39:17.455Z,102216.00
2023-02-27T15:41:51.522Z,102210.97
2023-02-27T15:44:23.581Z,102215.13
2023-02-27T15:46:51.005Z,102216.25
2023-02-27T15:49:21.236Z,102212.91
2023-02-27T15:52:01.836Z,102218.22
2023-02-27T15:54:36.799Z,102223.25
2023-02-27T15:57:05.117Z,102223.56
2023-02-27T15:59:37.173Z,102221.38
2023-02-27T16:02:05.990Z,102225.56
2023-02-27T16:04:34.606Z,102218.66
2023-02-27T16:07:05.736Z,102225.91
2023-02-27T16:09:36.419Z,102223.72
2023-02-27T16:12:24.156Z,102226.56
2023-02-27T16:14:55.756Z,102233.22
2023-02-27T16:17:28.949Z,102230.50
2023-02-27T16:19:57.243Z,102234.69
2023-02-27T16:22:24.518Z,102231.97
2023-02-27T16:24:51.770Z,102225.88
2023-02-27T16:27:26.984Z,102231.47
2023-02-27T16:29:55.985Z,102234.84
2023-02-27T16:32:26.592Z,102232.94
2023-02-27T16:35:02.180Z,102238.22
2023-02-27T16:37:38.271Z,102240.75
2023-02-27T16:40:19.498Z,102238.84
2023-02-27T16:42:46.670Z,102249.13
2023-02-27T16:45:22.396Z,102245.56
2023-02-27T16:47:50.805Z,102234.78
2023-02-27T16:50:27.871Z,102242.00
2023-02-27T16:52:54.625Z,102241.19
2023-02-27T16:55:21.309Z,102232.59
2023-02-27T16:57:47.900Z,102241.50
2023-02-27T17:00:16.356Z,102239.59
2023-02-27T17:02:43.126Z,102245.44
2023-02-27T17:05:10.814Z,102243.22
2023-02-27T17:07:38.636Z,102246.81
2023-02-27T17:10:05.321Z,102247.97
2023-02-27T17:12:31.968Z,102246.06
2023-02-27T17:14:58.331Z,102245.28
2023-02-27T17:17:24.885Z,102249.72
2023-02-27T17:19:52.560Z,102247.81
2023-02-27T17:22:18.979Z,102252.56
2023-02-27T17:24:45.451Z,102259.78
2023-02-27T17:27:11.859Z,102258.44
2023-02-27T17:29:39.057Z,102259.81
2023-02-27T17:32:06.657Z,102264.53
2023-02-27T17:34:33.347Z,102262.88
2023-02-27T17:36:59.780Z,102259.28
2023-02-27T17:39:26.358Z,102259.53
2023-02-27T17:41:54.504Z,102263.44
2023-02-27T17:44:21.441Z,102261.25
2023-02-27T17:46:47.967Z,102264.56
2023-02-27T17:49:16.372Z,102262.38
2023-02-27T17:51:44.183Z,102265.97
2023-02-27T17:54:10.904Z,102270.16
2023-02-27T17:56:38.585Z,102268.25
2023-02-27T17:59:11.142Z,102278.22
2023-02-27T18:01:40.284Z,102279.06
2023-02-27T18:04:10.894Z,102279.09
2023-02-27T18:06:37.895Z,102276.88
2023-02-27T18:09:05.846Z,102283.28
2023-02-27T18:11:32.380Z,102280.22
2023-02-27T18:13:59.318Z,102286.31
2023-02-27T18:16:26.172Z,102293.50
2023-02-27T18:18:52.621Z,102295.19
2023-02-27T18:21:23.614Z,102294.09
2023-02-27T18:23:54.871Z,102293.53
2023-02-27T18:26:32.871Z,102291.88
2023-02-27T18:29:02.207Z,102290.78
2023-02-27T18:31:32.223Z,102303.50
2023-02-27T18:33:58.987Z,102295.75
2023-02-27T18:36:25.356Z,102294.34
2023-02-27T18:38:51.700Z,102291.88
2023-02-27T18:41:18.090Z,102304.59
2023-02-27T18:43:44.972Z,102310.41
2023-02-27T18:46:16.513Z,102312.63
2023-02-27T18:48:44.543Z,102307.63
2023-02-27T18:51:14.447Z,102306.25
2023-02-27T18:53:46.991Z,102306.78
2023-02-27T18:56:17.530Z,102305.66
2023-02-27T18:58:44.473Z,102302.34
2023-02-27T19:01:31.950Z,102302.63
2023-02-27T19:04:03.423Z,102306.47
2023-02-27T19:06:32.229Z,102302.63
2023-02-27T19:08:58.864Z,102305.09
2023-02-27T19:11:29.443Z,102307.88
2023-02-27T19:13:59.930Z,102309.53
2023-02-27T19:16:27.421Z,102310.34
2023-02-27T19:18:56.029Z,102306.47
2023-02-27T19:21:22.705Z,102307.31
2023-02-27T19:23:49.122Z,102312.00
2023-02-27T19:26:16.539Z,102318.38
2023-02-27T19:28:44.155Z,102307.84
2023-02-27T19:31:14.260Z,102300.09
2023-02-27T19:33:41.131Z,102301.50
2023-02-27T19:36:10.836Z,102307.31
2023-02-27T19:38:37.819Z,102304.81
2023-02-27T19:41:06.572Z,102305.09
2023-02-27T19:43:38.634Z,102302.88
2023-02-27T19:46:10.479Z,102300.94
2023-02-27T19:48:37.157Z,102306.25
2023-02-27T19:51:05.521Z,102304.56
2023-02-27T19:53:33.746Z,102307.09
2023-02-27T19:56:01.601Z,102301.56
2023-02-27T19:58:29.768Z,102312.66
2023-02-27T20:00:56.479Z,102318.72
2023-02-27T20:03:23.682Z,102320.69
2023-02-27T20:05:50.533Z,102312.94
2023-02-27T20:08:17.563Z,102311.81
2023-02-27T20:10:56.121Z,102324.81
2023-02-27T20:13:23.360Z,102314.88
2023-02-27T20:16:04.225Z,102320.41
2023-02-27T20:18:32.018Z,102328.13
2023-02-27T20:21:07.784Z,102318.75
2023-02-27T20:23:37.836Z,102316.53
2023-02-27T20:26:20.199Z,102312.13
2023-02-27T20:28:49.727Z,102314.31
2023-02-27T20:31:21.091Z,102314.31
2023-02-27T20:33:49.899Z,102316.78
2023-02-27T20:36:17.013Z,102315.97
2023-02-27T20:38:44.221Z,102312.38
2023-02-27T20:41:14.499Z,102313.47
2023-02-27T20:43:43.126Z,102317.06
2023-02-27T20:46:16.257Z,102310.38
2023-02-27T20:48:43.277Z,102312.31
2023-02-27T20:51:13.802Z,102311.47
2023-02-27T20:53:43.175Z,102316.69
2023-02-27T20:56:11.902Z,102314.22
2023-02-27T20:58:39.130Z,102315.28
2023-02-27T21:01:13.211Z,102321.91
2023-02-27T21:03:42.982Z,102312.47
2023-02-27T21:06:11.379Z,102313.84
2023-02-27T21:08:39.546Z,102314.38
2023-02-27T21:11:11.373Z,102315.47
2023-02-27T21:13:38.201Z,102316.28
2023-02-27T21:16:07.391Z,102319.03
2023-02-27T21:18:34.146Z,102315.41
2023-02-27T21:21:09.462Z,102315.63
2023-02-27T21:23:43.930Z,102319.19
2023-02-27T21:26:33.322Z,102314.75
2023-02-27T21:29:15.264Z,102315.56
2023-02-27T21:31:45.159Z,102323.53
2023-02-27T21:34:14.959Z,102320.75
2023-02-27T21:36:43.399Z,102322.66
2023-02-27T21:39:13.223Z,102330.38
2023-02-27T21:41:40.261Z,102323.44
2023-02-27T21:44:08.096Z,102330.84
2023-02-27T21:46:36.403Z,102333.88
2023-02-27T21:49:04.003Z,102330.00
2023-02-27T21:51:39.914Z,102333.03
2023-02-27T21:54:09.681Z,102329.69
2023-02-27T21:56:36.565Z,102326.09
2023-02-27T21:59:04.152Z,102331.63
2023-02-27T22:01:31.573Z,102336.03
2023-02-27T22:03:58.518Z,102336.84
2023-02-27T22:06:27.607Z,102337.69
2023-02-27T22:08:55.751Z,102334.09
2023-02-27T22:11:23.894Z,102336.84
2023-02-27T22:13:50.764Z,102332.16
2023-02-27T22:16:17.693Z,102331.09
2023-02-27T22:18:44.574Z,102335.78
2023-02-27T22:21:18.148Z,102338.53
2023-02-27T22:23:46.420Z,102337.44
2023-02-27T22:26:18.292Z,102340.44
2023-02-27T22:28:44.805Z,102338.53
2023-02-27T22:31:19.478Z,102343.19
2023-02-27T22:33:48.683Z,102340.44
2023-02-27T22:36:18.426Z,102337.69
2023-02-27T22:38:44.997Z,102344.88
2023-02-27T22:41:14.250Z,102347.66
2023-02-27T22:43:42.033Z,102349.56
2023-02-27T22:46:09.831Z,102349.81
2023-02-27T22:48:38.659Z,102353.16
2023-02-27T22:51:09.058Z,102354.22
2023-02-27T22:53:39.400Z,102351.47
2023-02-27T22:56:24.960Z,102351.19
2023-02-27T22:58:51.485Z,102356.44
2023-02-27T23:01:25.957Z,102355.88
2023-02-27T23:03:55.475Z,102354.78
2023-02-27T23:06:25.066Z,102359.72
2023-02-27T23:08:54.674Z,102362.47
2023-02-27T23:11:21.699Z,102363.28
2023-02-27T23:13:48.849Z,102373.78
2023-02-27T23:16:15.560Z,102375.69
2023-02-27T23:18:49.023Z,102373.47
2023-02-27T23:21:19.852Z,102377.03
2023-02-27T23:23:47.807Z,102371.81
2023-02-27T23:26:14.670Z,102375.66
2023-02-27T23:28:41.333Z,102377.59
2023-02-27T23:31:08.593Z,102371.75
2023-02-27T23:33:35.654Z,102372.88
2023-02-27T23:36:02.888Z,102375.91
2023-02-27T23:38:30.098Z,102376.13
2023-02-27T23:40:56.632Z,102381.66
2023-02-27T23:43:42.308Z,102380.50
2023-02-27T23:46:10.473Z,102380.22
2023-02-27T23:48:37.423Z,102381.03
2023-02-27T23:51:06.088Z,102389.00
2023-02-27T23:53:34.358Z,102388.44
2023-02-27T23:56:00.996Z,102386.75
2023-02-27T23:58:28.335Z,102383.16
